Time;durP1;ratioP1;P1;durP2;ratioP2;P2;SDS_P1;SDS_P2;PMS_P1;PMS_P2;Temp;Humidity;BMP_temperature;BMP_pressure;BME280_temperature;BME280_humidity;BME280_pressure;Samples;Min_cycle;Max_cycle;Signal;HPM_P1;HPM_P2
2021/06/13 00:00:10;;;;;;;;;;;;;;;;;;1486089;40;7138;-60
2021/06/13 00:01:13;;;;;;;;;;;;;;;;;;1482685;40;7208;-60
2021/06/13 00:02:15;;;;;;;;;;;;;;;;;;1482646;40;7063;-61
2021/06/13 00:03:18;;;;;;;;;;;;;;;;;;1486410;40;7075;-59
2021/06/13 00:04:20;;;;;;;;;;;;;;;;;;1488696;39;7035;-62
2021/06/13 00:05:23;;;;;;;;;;;;;;;;;;1487591;39;7035;-64
2021/06/13 00:06:26;;;;;;;;;;;;;;;;;;1486487;40;8916;-62
2021/06/13 00:07:28;;;;;;;;;;;;;;;;;;1484310;40;7038;-62
2021/06/13 00:08:31;;;;;;;;;;;;;;;;;;1482790;40;7112;-61
2021/06/13 00:09:33;;;;;;;;;;;;;;;;;;1485218;40;8008;-60
2021/06/13 00:10:36;;;;;;;;;;;;;;;;;;1483752;39;7911;-63
2021/06/13 00:11:38;;;;;;;;;;;;;;;;;;1484900;40;7147;-61
2021/06/13 00:12:41;;;;;;;;;;;;;;;;;;1485948;39;7051;-60
2021/06/13 00:13:44;;;;;;;;;;;;;;;;;;1483966;40;7003;-62
2021/06/13 00:14:46;;;;;;;;;;;;;;;;;;1483594;40;8070;-61
2021/06/13 00:15:49;;;;;;;;;;;;;;;;;;1483779;40;7104;-62
2021/06/13 00:16:52;;;;;;;;;;;;;;;;;;1483820;40;7034;-61
2021/06/13 00:17:55;;;;;;;;;;;;;;;;;;1484194;40;6999;-59
2021/06/13 00:18:57;;;;;;;;;;;;;;;;;;1484440;40;8693;-62
2021/06/13 00:20:00;;;;;;;;;;;;;;;;;;1484422;40;7256;-59
2021/06/13 00:21:03;;;;;;;;;;;;;;;;;;1484788;40;7929;-62
2021/06/13 00:22:05;;;;;;;;;;;;;;;;;;1484046;40;7909;-60
2021/06/13 00:23:11;;;;;;;;;;;;;;;;;;1483649;40;7962;-60
2021/06/13 00:24:13;;;;;;;;;;;;;;;;;;1484413;40;7038;-59
2021/06/13 00:25:16;;;;;;;;;;;;;;;;;;1484213;40;7972;-62
2021/06/13 00:26:18;;;;;;;;;;;;;;;;;;1483943;40;7962;-61
2021/06/13 00:27:21;;;;;;;;;;;;;;;;;;1482313;39;7052;-63
2021/06/13 00:28:24;;;;;;;;;;;;;;;;;;1483902;40;7876;-61
2021/06/13 00:29:26;;;;;;;;;;;;;;;;;;1483583;40;7888;-62
2021/06/13 00:30:29;;;;;;;;;;;;;;;;;;1483931;40;7113;-60
2021/06/13 00:31:31;;;;;;;;;;;;;;;;;;1484068;39;7008;-64
2021/06/13 00:32:34;;;;;;;;;;;;;;;;;;1483309;39;7038;-60
2021/06/13 00:33:36;;;;;;;;;;;;;;;;;;1484910;40;6999;-61
2021/06/13 00:34:39;;;;;;;;;;;;;;;;;;1483754;39;7212;-62
2021/06/13 00:35:41;;;;;;;;;;;;;;;;;;1485506;39;7427;-63
2021/06/13 00:36:44;;;;;;;;;;;;;;;;;;1484302;40;7007;-62
2021/06/13 00:37:46;;;;;;;;;;;;;;;;;;1484917;40;7724;-59
2021/06/13 00:38:49;;;;;;;;;;;;;;;;;;1485817;39;7035;-62
2021/06/13 00:39:52;;;;;;;;;;;;;;;;;;1484966;40;7007;-59
2021/06/13 00:40:54;;;;;;;;;;;;;;;;;;1484445;39;7230;-60
2021/06/13 00:41:57;;;;;;;;;;;;;;;;;;1485550;40;7043;-62
2021/06/13 00:43:00;;;;;;;;;;;;;;;;;;1485085;39;7349;-61
2021/06/13 00:44:02;;;;;;;;;;;;;;;;;;1484583;40;7035;-59
2021/06/13 00:45:06;;;;;;;;;;;;;;;;;;1484845;40;7524;-61
2021/06/13 00:46:09;;;;;;;;;;;;;;;;;;1484157;40;7035;-60
2021/06/13 00:47:11;;;;;;;;;;;;;;;;;;1484354;40;7037;-64
2021/06/13 00:48:14;;;;;;;;;;;;;;;;;;1484772;39;8944;-61
2021/06/13 00:49:16;;;;;;;;;;;;;;;;;;1484656;40;7031;-62
2021/06/13 00:50:24;;;;;;;;;;;;;;;;;;1484598;39;7016;-61
2021/06/13 00:51:27;;;;;;;;;;;;;;;;;;1485442;40;7901;-62
2021/06/13 00:52:29;;;;;;;;;;;;;;;;;;1485356;39;7273;-61
2021/06/13 00:53:32;;;;;;;;;;;;;;;;;;1483493;40;7006;-61
2021/06/13 00:54:34;;;;;;;;;;;;;;;;;;1484754;40;7012;-61
2021/06/13 00:55:38;;;;;;;;;;;;;;;;;;1486999;39;7003;-63
2021/06/13 00:56:41;;;;;;;;;;;;;;;;;;1486319;39;7167;-61
2021/06/13 00:57:43;;;;;;;;;;;;;;;;;;1483904;40;7991;-61
2021/06/13 00:58:48;;;;;;;;;;;;;;;;;;1484727;40;7925;-60
2021/06/13 00:59:50;;;;;;;;;;;;;;;;;;1484582;40;8286;-62
2021/06/13 01:00:53;;;;;;;;;;;;;;;;;;1485832;40;6999;-62
2021/06/13 01:01:56;;;;;;;;;;;;;;;;;;1485245;40;7023;-64
2021/06/13 01:02:59;;;;;;;;;;;;;;;;;;1484301;39;7109;-60
2021/06/13 01:04:03;;;;;;;;;;;;;;;;;;1483824;40;7007;-63
2021/06/13 01:05:06;;;;;;;;;;;;;;;;;;1484285;40;7187;-63
2021/06/13 01:06:10;;;;;;;;;;;;;;;;;;1483777;40;7899;-62
2021/06/13 01:07:15;;;;;;;;;;;;;;;;;;1483881;40;7012;-62
2021/06/13 01:08:30;;;;;;;;;;;;;;;;;;1480783;40;7772;-64
2021/06/13 01:09:34;;;;;;;;;;;;;;;;;;1484346;40;7019;-63
2021/06/13 01:11:01;;;;;;;;;;;;;;;;;;1484308;40;7035;-61
2021/06/13 01:12:19;;;;;;;;;;;;;;;;;;1484012;40;7336;-61
2021/06/13 01:13:30;;;;;;;;;;;;;;;;;;1483947;40;7928;-61
2021/06/13 01:14:36;;;;;;;;;;;;;;;;;;1486313;39;7914;-60
2021/06/13 01:15:43;;;;;;;;;;;;;;;;;;1486111;39;7008;-65
2021/06/13 01:16:51;;;;;;;;;;;;;;;;;;1484148;40;7011;-59
2021/06/13 01:18:02;;;;;;;;;;;;;;;;;;1483635;40;7870;-62
2021/06/13 01:19:14;;;;;;;;;;;;;;;;;;1484274;40;7047;-61
2021/06/13 01:20:22;;;;;;;;;;;;;;;;;;1482926;39;7600;-60
2021/06/13 01:21:30;;;;;;;;;;;;;;;;;;1484134;40;7043;-62
2021/06/13 01:22:38;;;;;;;;;;;;;;;;;;1484716;40;7942;-62
2021/06/13 01:23:43;;;;;;;;;;;;;;;;;;1484704;39;8637;-60
2021/06/13 01:24:55;;;;;;;;;;;;;;;;;;1485793;40;7951;-65
2021/06/13 01:26:09;;;;;;;;;;;;;;;;;;1483183;40;7895;-62
2021/06/13 01:27:47;;;;;;;;;;;;;;;;;;1483458;39;6999;-61
2021/06/13 01:29:09;;;;;;;;;;;;;;;;;;1477275;40;7235;-63
2021/06/13 01:30:11;;;;;;;;;;;;;;;;;;1473872;40;7007;-61
2021/06/13 01:31:16;;;;;;;;;;;;;;;;;;1481831;39;7031;-62
2021/06/13 01:32:23;;;;;;;;;;;;;;;;;;1483287;39;7012;-65
2021/06/13 01:33:26;;;;;;;;;;;;;;;;;;1486302;40;7008;-60
2021/06/13 01:34:35;;;;;;;;;;;;;;;;;;1485848;39;7011;-61
2021/06/13 01:35:39;;;;;;;;;;;;;;;;;;1482863;40;7372;-61
2021/06/13 01:36:44;;;;;;;;;;;;;;;;;;1483226;39;7034;-60
2021/06/13 01:37:50;;;;;;;;;;;;;;;;;;1482342;40;8003;-60
2021/06/13 01:38:55;;;;;;;;;;;;;;;;;;1484746;40;7047;-62
2021/06/13 01:40:05;;;;;;;;;;;;;;;;;;1485256;40;7851;-64
2021/06/13 01:41:09;;;;;;;;;;;;;;;;;;1487043;40;7910;-63
2021/06/13 01:42:14;;;;;;;;;;;;;;;;;;1486203;40;7987;-62
2021/06/13 01:43:17;;;;;;;;;;;;;;;;;;1486520;40;7124;-62
2021/06/13 01:44:20;;;;;;;;;;;;;;;;;;1487018;39;7843;-59
2021/06/13 01:45:26;;;;;;;;;;;;;;;;;;1486963;39;7003;-60
2021/06/13 01:46:35;;;;;;;;;;;;;;;;;;1484914;39;7048;-63
2021/06/13 01:47:39;;;;;;;;;;;;;;;;;;1483290;40;7035;-61
2021/06/13 01:48:42;;;;;;;;;;;;;;;;;;1483079;40;7016;-60
2021/06/13 01:49:45;;;;;;;;;;;;;;;;;;1483598;40;7841;-62
2021/06/13 01:50:49;;;;;;;;;;;;;;;;;;1483582;40;7003;-59
2021/06/13 01:51:51;;;;;;;;;;;;;;;;;;1483388;40;7948;-60
2021/06/13 01:52:55;;;;;;;;;;;;;;;;;;1483133;40;7881;-63
2021/06/13 01:54:00;;;;;;;;;;;;;;;;;;1483018;40;7109;-63
2021/06/13 01:55:03;;;;;;;;;;;;;;;;;;1483540;40;8038;-60
2021/06/13 01:56:06;;;;;;;;;;;;;;;;;;1482795;40;7929;-63
2021/06/13 01:57:08;;;;;;;;;;;;;;;;;;1485230;39;7079;-61
2021/06/13 01:58:13;;;;;;;;;;;;;;;;;;1486920;40;7027;-64
2021/06/13 01:59:17;;;;;;;;;;;;;;;;;;1486912;40;7926;-62
2021/06/13 02:00:20;;;;;;;;;;;;;;;;;;1486863;39;7008;-62
2021/06/13 02:01:24;;;;;;;;;;;;;;;;;;1486941;40;7031;-60
2021/06/13 02:02:27;;;;;;;;;;;;;;;;;;1486850;39;7110;-62
2021/06/13 02:03:30;;;;;;;;;;;;;;;;;;1482695;40;7916;-64
2021/06/13 02:04:34;;;;;;;;;;;;;;;;;;1483246;40;7117;-64
2021/06/13 02:05:37;;;;;;;;;;;;;;;;;;1486928;40;7039;-61
2021/06/13 02:06:47;;;;;;;;;;;;;;;;;;1487140;39;7950;-61
2021/06/13 02:07:49;;;;;;;;;;;;;;;;;;1486679;39;7144;-60
2021/06/13 02:08:53;;;;;;;;;;;;;;;;;;1483563;40;7047;-63
2021/06/13 02:09:56;;;;;;;;;;;;;;;;;;1485895;40;7020;-61
2021/06/13 02:10:59;;;;;;;;;;;;;;;;;;1486840;39;7007;-61
2021/06/13 02:12:04;;;;;;;;;;;;;;;;;;1486872;40;7115;-64
2021/06/13 02:13:08;;;;;;;;;;;;;;;;;;1483098;40;7035;-65
2021/06/13 02:14:11;;;;;;;;;;;;;;;;;;1484774;40;7030;-62
2021/06/13 02:15:18;;;;;;;;;;;;;;;;;;1487198;39;7039;-62
2021/06/13 02:16:21;;;;;;;;;;;;;;;;;;1487004;39;7262;-63
2021/06/13 02:17:24;;;;;;;;;;;;;;;;;;1485988;39;7877;-62
2021/06/13 02:18:27;;;;;;;;;;;;;;;;;;1482851;40;7087;-63
2021/06/13 02:19:31;;;;;;;;;;;;;;;;;;1484284;40;6999;-63
2021/06/13 02:20:34;;;;;;;;;;;;;;;;;;1485280;40;6999;-62
2021/06/13 02:21:40;;;;;;;;;;;;;;;;;;1485554;39;8040;-62
2021/06/13 02:22:43;;;;;;;;;;;;;;;;;;1482747;39;7038;-61
2021/06/13 02:23:46;;;;;;;;;;;;;;;;;;1485507;40;7027;-61
2021/06/13 02:24:49;;;;;;;;;;;;;;;;;;1484564;40;7011;-63
2021/06/13 02:25:52;;;;;;;;;;;;;;;;;;1484976;40;7931;-61
2021/06/13 02:26:56;;;;;;;;;;;;;;;;;;1484101;40;7904;-64
2021/06/13 02:28:00;;;;;;;;;;;;;;;;;;1483427;39;7120;-64
2021/06/13 02:29:03;;;;;;;;;;;;;;;;;;1485303;40;7121;-61
2021/06/13 02:30:08;;;;;;;;;;;;;;;;;;1485315;40;7003;-66
2021/06/13 02:31:11;;;;;;;;;;;;;;;;;;1486882;39;7232;-60
2021/06/13 02:32:15;;;;;;;;;;;;;;;;;;1486527;39;7034;-61
2021/06/13 02:33:20;;;;;;;;;;;;;;;;;;1483134;40;7087;-64
2021/06/13 02:34:24;;;;;;;;;;;;;;;;;;1485903;39;7126;-61
2021/06/13 02:35:27;;;;;;;;;;;;;;;;;;1482755;40;7039;-61
2021/06/13 02:36:30;;;;;;;;;;;;;;;;;;1482557;39;7111;-62
2021/06/13 02:37:33;;;;;;;;;;;;;;;;;;1482340;39;7035;-61
2021/06/13 02:38:35;;;;;;;;;;;;;;;;;;1482733;40;7000;-62
2021/06/13 02:39:38;;;;;;;;;;;;;;;;;;1482999;40;7000;-61
2021/06/13 02:40:41;;;;;;;;;;;;;;;;;;1483725;40;7015;-60
2021/06/13 02:41:43;;;;;;;;;;;;;;;;;;1486776;40;7044;-60
2021/06/13 02:42:45;;;;;;;;;;;;;;;;;;1483507;40;7904;-64
2021/06/13 02:43:48;;;;;;;;;;;;;;;;;;1484908;40;7004;-63
2021/06/13 02:44:51;;;;;;;;;;;;;;;;;;1485988;40;7003;-60
2021/06/13 02:45:53;;;;;;;;;;;;;;;;;;1487169;39;6999;-61
2021/06/13 02:46:56;;;;;;;;;;;;;;;;;;1488026;39;7936;-61
2021/06/13 02:47:58;;;;;;;;;;;;;;;;;;1484780;40;7127;-61
2021/06/13 02:49:06;;;;;;;;;;;;;;;;;;1488351;39;7008;-63
2021/06/13 02:50:09;;;;;;;;;;;;;;;;;;1486446;39;6999;-61
2021/06/13 02:51:14;;;;;;;;;;;;;;;;;;1484048;39;7003;-59
2021/06/13 02:52:40;;;;;;;;;;;;;;;;;;1485754;39;6999;-59
2021/06/13 02:53:44;;;;;;;;;;;;;;;;;;1486649;39;7003;-62
2021/06/13 02:54:48;;;;;;;;;;;;;;;;;;1487266;39;7112;-62
2021/06/13 02:56:01;;;;;;;;;;;;;;;;;;1485759;39;7015;-59
2021/06/13 02:57:07;;;;;;;;;;;;;;;;;;1484923;39;7003;-62
2021/06/13 02:58:26;;;;;;;;;;;;;;;;;;1482846;40;7110;-60
2021/06/13 03:09:51;;;;;;;;;;;;;;;;;;1481657;40;6987;-62
2021/06/13 03:10:53;;;;;;;;;;;;;;;;;;1481646;40;7027;-62
2021/06/13 03:11:56;;;;;;;;;;;;;;;;;;1479322;40;7004;-60
2021/06/13 03:13:01;;;;;;;;;;;;;;;;;;1477819;40;7108;-62
2021/06/13 03:14:06;;;;;;;;;;;;;;;;;;1477685;40;7016;-61
2021/06/13 03:15:09;;;;;;;;;;;;;;;;;;1477799;40;7935;-63
2021/06/13 03:16:12;;;;;;;;;;;;;;;;;;1477948;40;7891;-62
2021/06/13 03:17:16;;;;;;;;;;;;;;;;;;1477956;40;6999;-63
2021/06/13 03:18:20;;;;;;;;;;;;;;;;;;1481527;40;7054;-61
2021/06/13 03:19:24;;;;;;;;;;;;;;;;;;1477023;40;7198;-63
2021/06/13 03:20:28;;;;;;;;;;;;;;;;;;1477289;40;7302;-60
2021/06/13 03:21:30;;;;;;;;;;;;;;;;;;1478384;40;7047;-64
2021/06/13 03:22:33;;;;;;;;;;;;;;;;;;1481643;40;7038;-60
2021/06/13 03:23:37;;;;;;;;;;;;;;;;;;1477449;40;7824;-61
2021/06/13 03:24:41;;;;;;;;;;;;;;;;;;1480365;40;7044;-62
2021/06/13 03:25:45;;;;;;;;;;;;;;;;;;1479973;40;6999;-61
2021/06/13 03:26:49;;;;;;;;;;;;;;;;;;1478203;40;7877;-61
2021/06/13 03:27:52;;;;;;;;;;;;;;;;;;1480670;40;7016;-61
2021/06/13 03:28:57;;;;;;;;;;;;;;;;;;1481361;40;7202;-60
2021/06/13 03:30:00;;;;;;;;;;;;;;;;;;1478556;40;7120;-61
2021/06/13 03:31:04;;;;;;;;;;;;;;;;;;1481184;40;7359;-64
2021/06/13 03:32:09;;;;;;;;;;;;;;;;;;1477292;40;7953;-62
2021/06/13 03:33:12;;;;;;;;;;;;;;;;;;1482555;40;7080;-62
2021/06/13 03:34:15;;;;;;;;;;;;;;;;;;1486337;39;7090;-60
2021/06/13 03:35:18;;;;;;;;;;;;;;;;;;1486790;40;7004;-62
2021/06/13 03:36:21;;;;;;;;;;;;;;;;;;1486468;40;7051;-62
2021/06/13 03:37:24;;;;;;;;;;;;;;;;;;1486007;40;7027;-62
2021/06/13 03:38:28;;;;;;;;;;;;;;;;;;1485423;39;7853;-63
2021/06/13 03:39:32;;;;;;;;;;;;;;;;;;1485876;40;7035;-62
2021/06/13 03:40:35;;;;;;;;;;;;;;;;;;1486301;40;7035;-63
2021/06/13 03:41:39;;;;;;;;;;;;;;;;;;1486672;40;7023;-62
2021/06/13 03:42:43;;;;;;;;;;;;;;;;;;1486979;39;7043;-64
2021/06/13 03:43:46;;;;;;;;;;;;;;;;;;1487264;40;7035;-60
2021/06/13 03:44:49;;;;;;;;;;;;;;;;;;1484977;40;7067;-61
2021/06/13 03:45:52;;;;;;;;;;;;;;;;;;1487053;40;7234;-64
2021/06/13 03:46:57;;;;;;;;;;;;;;;;;;1486575;39;7122;-59
2021/06/13 03:48:00;;;;;;;;;;;;;;;;;;1485875;40;7086;-60
2021/06/13 03:49:05;;;;;;;;;;;;;;;;;;1483564;39;7110;-64
2021/06/13 03:50:10;;;;;;;;;;;;;;;;;;1485435;40;7046;-61
2021/06/13 03:51:13;;;;;;;;;;;;;;;;;;1487314;40;7876;-60
2021/06/13 03:52:17;;;;;;;;;;;;;;;;;;1483699;40;7026;-60
2021/06/13 03:53:21;;;;;;;;;;;;;;;;;;1483225;40;7114;-63
2021/06/13 03:54:23;;;;;;;;;;;;;;;;;;1483083;40;7042;-61
2021/06/13 03:55:26;;;;;;;;;;;;;;;;;;1486702;40;7236;-61
2021/06/13 03:56:28;;;;;;;;;;;;;;;;;;1484313;39;7012;-62
2021/06/13 03:57:33;;;;;;;;;;;;;;;;;;1482736;40;7039;-62
2021/06/13 03:58:35;;;;;;;;;;;;;;;;;;1484440;39;7115;-61
2021/06/13 03:59:40;;;;;;;;;;;;;;;;;;1483122;40;7039;-63
2021/06/13 04:00:43;;;;;;;;;;;;;;;;;;1484355;40;7003;-63
2021/06/13 04:01:49;;;;;;;;;;;;;;;;;;1482702;40;7016;-62
2021/06/13 04:02:52;;;;;;;;;;;;;;;;;;1484556;40;7123;-65
2021/06/13 04:03:55;;;;;;;;;;;;;;;;;;1485027;40;7016;-61
2021/06/13 04:05:00;;;;;;;;;;;;;;;;;;1483346;40;7130;-61
2021/06/13 04:06:04;;;;;;;;;;;;;;;;;;1486239;40;7112;-62
2021/06/13 04:07:08;;;;;;;;;;;;;;;;;;1486819;40;7092;-61
2021/06/13 04:08:13;;;;;;;;;;;;;;;;;;1486437;39;7867;-64
2021/06/13 04:09:17;;;;;;;;;;;;;;;;;;1486644;40;7279;-64
2021/06/13 04:10:21;;;;;;;;;;;;;;;;;;1487645;40;7047;-62
2021/06/13 04:11:24;;;;;;;;;;;;;;;;;;1487756;40;7030;-62
2021/06/13 04:12:27;;;;;;;;;;;;;;;;;;1483751;40;7030;-63
2021/06/13 04:13:32;;;;;;;;;;;;;;;;;;1486743;40;7016;-61
2021/06/13 04:14:34;;;;;;;;;;;;;;;;;;1487581;40;7007;-62
2021/06/13 04:15:38;;;;;;;;;;;;;;;;;;1486691;40;7040;-60
2021/06/13 04:16:44;;;;;;;;;;;;;;;;;;1487350;39;7031;-61
2021/06/13 04:17:48;;;;;;;;;;;;;;;;;;1485569;39;7003;-62
2021/06/13 04:18:51;;;;;;;;;;;;;;;;;;1482858;40;7007;-61
2021/06/13 04:19:54;;;;;;;;;;;;;;;;;;1484447;40;7026;-59
2021/06/13 04:20:56;;;;;;;;;;;;;;;;;;1482878;40;6999;-63
2021/06/13 04:21:59;;;;;;;;;;;;;;;;;;1486537;40;7016;-60
2021/06/13 04:23:03;;;;;;;;;;;;;;;;;;1486483;40;7211;-62
2021/06/13 04:24:10;;;;;;;;;;;;;;;;;;1484546;40;7011;-60
2021/06/13 04:25:14;;;;;;;;;;;;;;;;;;1487070;40;7044;-61
2021/06/13 04:26:18;;;;;;;;;;;;;;;;;;1485562;40;8368;-59
2021/06/13 04:27:23;;;;;;;;;;;;;;;;;;1486198;39;7044;-62
2021/06/13 04:28:26;;;;;;;;;;;;;;;;;;1485065;40;7099;-61
2021/06/13 04:29:28;;;;;;;;;;;;;;;;;;1486575;40;7051;-60
2021/06/13 04:30:31;;;;;;;;;;;;;;;;;;1483155;40;7007;-62
2021/06/13 04:31:34;;;;;;;;;;;;;;;;;;1482936;40;7187;-61
2021/06/13 04:32:36;;;;;;;;;;;;;;;;;;1486911;40;7012;-60
2021/06/13 04:33:40;;;;;;;;;;;;;;;;;;1483424;39;7027;-60
2021/06/13 04:34:43;;;;;;;;;;;;;;;;;;1486265;40;6998;-61
2021/06/13 04:35:45;;;;;;;;;;;;;;;;;;1485884;40;7008;-64
2021/06/13 04:36:48;;;;;;;;;;;;;;;;;;1486629;40;7005;-62
2021/06/13 04:37:50;;;;;;;;;;;;;;;;;;1482874;39;7110;-63
2021/06/13 04:38:52;;;;;;;;;;;;;;;;;;1483057;40;7902;-60
2021/06/13 04:39:55;;;;;;;;;;;;;;;;;;1483134;40;7052;-61
2021/06/13 04:40:59;;;;;;;;;;;;;;;;;;1483196;40;7908;-61
2021/06/13 04:42:04;;;;;;;;;;;;;;;;;;1483273;40;7007;-62
2021/06/13 04:43:07;;;;;;;;;;;;;;;;;;1487587;39;7111;-59
2021/06/13 04:44:09;;;;;;;;;;;;;;;;;;1487394;40;7039;-61
2021/06/13 04:45:12;;;;;;;;;;;;;;;;;;1487531;40;7859;-62
2021/06/13 04:46:20;;;;;;;;;;;;;;;;;;1484591;40;7038;-63
2021/06/13 04:47:23;;;;;;;;;;;;;;;;;;1487283;40;7035;-64
2021/06/13 04:48:26;;;;;;;;;;;;;;;;;;1484673;39;7116;-60
2021/06/13 04:49:28;;;;;;;;;;;;;;;;;;1483325;40;6999;-63
2021/06/13 04:50:32;;;;;;;;;;;;;;;;;;1483494;40;7333;-61
2021/06/13 04:51:37;;;;;;;;;;;;;;;;;;1484154;39;6999;-60
2021/06/13 04:52:42;;;;;;;;;;;;;;;;;;1483262;40;7118;-61
2021/06/13 04:53:47;;;;;;;;;;;;;;;;;;1483314;40;7424;-60
2021/06/13 04:55:08;;;;;;;;;;;;;;;;;;1486075;39;6999;-60
2021/06/13 04:56:11;;;;;;;;;;;;;;;;;;1487270;39;7108;-61
2021/06/13 04:57:16;;;;;;;;;;;;;;;;;;1486641;40;7004;-61
2021/06/13 04:58:21;;;;;;;;;;;;;;;;;;1486851;40;8082;-59
2021/06/13 04:59:24;;;;;;;;;;;;;;;;;;1483420;39;7007;-61
2021/06/13 05:00:26;;;;;;;;;;;;;;;;;;1483980;40;7016;-61
2021/06/13 05:01:29;;;;;;;;;;;;;;;;;;1483278;40;7035;-66
2021/06/13 05:02:32;;;;;;;;;;;;;;;;;;1487143;40;7003;-63
2021/06/13 05:03:34;;;;;;;;;;;;;;;;;;1485191;40;6999;-61
2021/06/13 05:04:37;;;;;;;;;;;;;;;;;;1483087;39;7860;-60
2021/06/13 05:05:39;;;;;;;;;;;;;;;;;;1487039;40;7044;-64
2021/06/13 05:06:46;;;;;;;;;;;;;;;;;;1484626;39;7008;-59
2021/06/13 05:07:49;;;;;;;;;;;;;;;;;;1482823;40;7000;-61
2021/06/13 05:08:51;;;;;;;;;;;;;;;;;;1485939;40;8086;-59
2021/06/13 05:09:54;;;;;;;;;;;;;;;;;;1482880;40;6995;-62
2021/06/13 05:10:57;;;;;;;;;;;;;;;;;;1483102;40;7165;-60
2021/06/13 05:11:59;;;;;;;;;;;;;;;;;;1483179;40;7007;-61
2021/06/13 05:13:12;;;;;;;;;;;;;;;;;;1483363;40;7118;-62
2021/06/13 05:14:14;;;;;;;;;;;;;;;;;;1486898;40;7936;-60
2021/06/13 05:15:18;;;;;;;;;;;;;;;;;;1487048;39;7873;-61
2021/06/13 05:16:20;;;;;;;;;;;;;;;;;;1486802;40;7110;-62
2021/06/13 05:17:23;;;;;;;;;;;;;;;;;;1486581;39;7124;-63
2021/06/13 05:18:25;;;;;;;;;;;;;;;;;;1483272;40;7011;-60
2021/06/13 05:19:27;;;;;;;;;;;;;;;;;;1486244;39;7003;-62
2021/06/13 05:20:30;;;;;;;;;;;;;;;;;;1484903;40;7044;-62
2021/06/13 05:21:32;;;;;;;;;;;;;;;;;;1484034;40;7136;-60
2021/06/13 05:22:53;;;;;;;;;;;;;;;;;;1485569;39;7026;-61
2021/06/13 05:23:55;;;;;;;;;;;;;;;;;;1483328;40;7120;-61
2021/06/13 05:24:58;;;;;;;;;;;;;;;;;;1486627;40;6999;-61
2021/06/13 05:26:00;;;;;;;;;;;;;;;;;;1484321;39;6999;-59
2021/06/13 05:27:03;;;;;;;;;;;;;;;;;;1486956;39;7007;-66
2021/06/13 05:28:07;;;;;;;;;;;;;;;;;;1487049;39;7035;-61
2021/06/13 05:29:10;;;;;;;;;;;;;;;;;;1487079;40;7043;-64
2021/06/13 05:30:12;;;;;;;;;;;;;;;;;;1486238;40;7030;-61
2021/06/13 05:31:15;;;;;;;;;;;;;;;;;;1484058;40;7004;-61
2021/06/13 05:32:17;;;;;;;;;;;;;;;;;;1484871;40;7148;-60
2021/06/13 05:33:20;;;;;;;;;;;;;;;;;;1487078;40;7038;-64
2021/06/13 05:34:22;;;;;;;;;;;;;;;;;;1485195;40;7053;-61
2021/06/13 05:35:25;;;;;;;;;;;;;;;;;;1483675;39;7008;-62
2021/06/13 05:36:27;;;;;;;;;;;;;;;;;;1485378;40;7863;-61
2021/06/13 05:37:30;;;;;;;;;;;;;;;;;;1486441;40;8384;-63
2021/06/13 05:38:32;;;;;;;;;;;;;;;;;;1482670;40;7952;-60
2021/06/13 05:39:35;;;;;;;;;;;;;;;;;;1483435;40;7043;-61
2021/06/13 05:40:38;;;;;;;;;;;;;;;;;;1483365;40;7003;-61
2021/06/13 05:41:40;;;;;;;;;;;;;;;;;;1484030;40;7039;-64
2021/06/13 05:42:43;;;;;;;;;;;;;;;;;;1484108;40;7088;-61
2021/06/13 05:43:45;;;;;;;;;;;;;;;;;;1486953;40;7882;-62
2021/06/13 05:44:48;;;;;;;;;;;;;;;;;;1490360;39;7003;-60
2021/06/13 05:45:50;;;;;;;;;;;;;;;;;;1487639;39;6999;-62
2021/06/13 05:46:53;;;;;;;;;;;;;;;;;;1484447;40;7950;-63
2021/06/13 05:47:55;;;;;;;;;;;;;;;;;;1486757;40;7896;-62
2021/06/13 05:48:58;;;;;;;;;;;;;;;;;;1486062;40;7007;-63
2021/06/13 05:50:03;;;;;;;;;;;;;;;;;;1483184;40;7102;-60
2021/06/13 05:51:06;;;;;;;;;;;;;;;;;;1483006;40;7223;-62
2021/06/13 05:52:08;;;;;;;;;;;;;;;;;;1483811;40;7042;-62
2021/06/13 05:53:11;;;;;;;;;;;;;;;;;;1483043;40;7039;-63
2021/06/13 05:54:13;;;;;;;;;;;;;;;;;;1482082;40;7968;-62
2021/06/13 05:55:17;;;;;;;;;;;;;;;;;;1486354;40;7012;-62
2021/06/13 05:56:19;;;;;;;;;;;;;;;;;;1486173;40;7015;-62
2021/06/13 05:57:22;;;;;;;;;;;;;;;;;;1483175;40;7116;-60
2021/06/13 05:58:24;;;;;;;;;;;;;;;;;;1483304;40;7007;-62
2021/06/13 05:59:27;;;;;;;;;;;;;;;;;;1486864;39;7034;-64
2021/06/13 06:00:31;;;;;;;;;;;;;;;;;;1482910;40;7902;-62
2021/06/13 06:01:33;;;;;;;;;;;;;;;;;;1484543;40;7016;-61
2021/06/13 06:02:37;;;;;;;;;;;;;;;;;;1487305;39;7124;-62
2021/06/13 06:03:39;;;;;;;;;;;;;;;;;;1486569;40;7243;-60
2021/06/13 06:04:41;;;;;;;;;;;;;;;;;;1484089;40;7024;-64
2021/06/13 06:05:44;;;;;;;;;;;;;;;;;;1485414;40;6999;-63
2021/06/13 06:06:46;;;;;;;;;;;;;;;;;;1484107;39;7000;-61
2021/06/13 06:07:49;;;;;;;;;;;;;;;;;;1482744;40;6999;-62
2021/06/13 06:08:52;;;;;;;;;;;;;;;;;;1483099;40;7020;-61
2021/06/13 06:09:54;;;;;;;;;;;;;;;;;;1483100;40;7473;-61
2021/06/13 06:10:56;;;;;;;;;;;;;;;;;;1484143;39;7031;-63
2021/06/13 06:11:59;;;;;;;;;;;;;;;;;;1486334;40;7047;-59
2021/06/13 06:13:04;;;;;;;;;;;;;;;;;;1486755;39;7139;-63
2021/06/13 06:14:07;;;;;;;;;;;;;;;;;;1486340;40;7203;-62
2021/06/13 06:15:12;;;;;;;;;;;;;;;;;;1487054;39;7012;-61
2021/06/13 06:16:14;;;;;;;;;;;;;;;;;;1483071;39;7047;-62
2021/06/13 06:17:18;;;;;;;;;;;;;;;;;;1483503;40;7128;-60
2021/06/13 06:18:20;;;;;;;;;;;;;;;;;;1486883;40;6999;-59
2021/06/13 06:19:23;;;;;;;;;;;;;;;;;;1484668;40;7043;-63
2021/06/13 06:20:28;;;;;;;;;;;;;;;;;;1486800;40;7028;-63
2021/06/13 06:21:30;;;;;;;;;;;;;;;;;;1484954;39;7016;-62
2021/06/13 06:22:32;;;;;;;;;;;;;;;;;;1483893;40;7007;-61
2021/06/13 06:23:35;;;;;;;;;;;;;;;;;;1482599;39;7030;-64
2021/06/13 06:24:37;;;;;;;;;;;;;;;;;;1482666;40;7007;-61
2021/06/13 06:25:40;;;;;;;;;;;;;;;;;;1485717;40;7046;-59
2021/06/13 06:26:42;;;;;;;;;;;;;;;;;;1486397;39;7003;-62
2021/06/13 06:27:45;;;;;;;;;;;;;;;;;;1483346;40;7007;-63
2021/06/13 06:28:47;;;;;;;;;;;;;;;;;;1482462;40;7047;-63
2021/06/13 06:29:50;;;;;;;;;;;;;;;;;;1484537;40;7044;-61
2021/06/13 06:30:54;;;;;;;;;;;;;;;;;;1484700;39;7900;-59
2021/06/13 06:31:56;;;;;;;;;;;;;;;;;;1483754;40;7124;-60
2021/06/13 06:32:59;;;;;;;;;;;;;;;;;;1486156;39;7938;-61
2021/06/13 06:34:02;;;;;;;;;;;;;;;;;;1485527;39;7234;-61
2021/06/13 06:35:06;;;;;;;;;;;;;;;;;;1486839;40;7003;-61
2021/06/13 06:36:08;;;;;;;;;;;;;;;;;;1485578;39;7043;-62
2021/06/13 06:37:11;;;;;;;;;;;;;;;;;;1482304;40;7941;-63
2021/06/13 06:38:13;;;;;;;;;;;;;;;;;;1483352;40;7007;-63
2021/06/13 06:39:16;;;;;;;;;;;;;;;;;;1487226;39;7825;-63
2021/06/13 06:40:18;;;;;;;;;;;;;;;;;;1486940;40;7011;-62
2021/06/13 06:41:21;;;;;;;;;;;;;;;;;;1487092;39;7007;-62
2021/06/13 06:42:23;;;;;;;;;;;;;;;;;;1485521;39;7109;-62
2021/06/13 06:43:27;;;;;;;;;;;;;;;;;;1485190;39;7111;-61
2021/06/13 06:44:29;;;;;;;;;;;;;;;;;;1483339;40;7187;-63
2021/06/13 06:45:32;;;;;;;;;;;;;;;;;;1485034;40;9612;-61
2021/06/13 06:46:35;;;;;;;;;;;;;;;;;;1484774;40;7062;-60
2021/06/13 06:47:38;;;;;;;;;;;;;;;;;;1483194;40;7942;-61
2021/06/13 06:48:41;;;;;;;;;;;;;;;;;;1482834;40;7040;-61
2021/06/13 06:49:43;;;;;;;;;;;;;;;;;;1482790;40;7027;-63
2021/06/13 06:50:46;;;;;;;;;;;;;;;;;;1485408;40;7270;-63
2021/06/13 06:51:48;;;;;;;;;;;;;;;;;;1485189;40;7007;-61
2021/06/13 06:52:51;;;;;;;;;;;;;;;;;;1483711;39;7116;-64
2021/06/13 06:53:55;;;;;;;;;;;;;;;;;;1485773;40;7007;-61
2021/06/13 06:54:59;;;;;;;;;;;;;;;;;;1484028;39;7108;-61
2021/06/13 06:56:01;;;;;;;;;;;;;;;;;;1484522;40;7035;-60
2021/06/13 06:57:04;;;;;;;;;;;;;;;;;;1484673;39;7003;-61
2021/06/13 06:58:06;;;;;;;;;;;;;;;;;;1483526;40;7003;-61
2021/06/13 06:59:08;;;;;;;;;;;;;;;;;;1484298;39;7115;-60
2021/06/13 07:00:12;;;;;;;;;;;;;;;;;;1483240;40;7078;-64
2021/06/13 07:01:14;;;;;;;;;;;;;;;;;;1483796;39;7007;-62
2021/06/13 07:02:16;;;;;;;;;;;;;;;;;;1483096;40;7015;-60
2021/06/13 07:03:19;;;;;;;;;;;;;;;;;;1484581;40;7035;-64
2021/06/13 07:04:22;;;;;;;;;;;;;;;;;;1482670;40;7035;-63
2021/06/13 07:05:24;;;;;;;;;;;;;;;;;;1483672;40;7043;-61
2021/06/13 07:06:27;;;;;;;;;;;;;;;;;;1483042;40;7038;-61
2021/06/13 07:07:29;;;;;;;;;;;;;;;;;;1482531;40;7949;-61
2021/06/13 07:08:31;;;;;;;;;;;;;;;;;;1482615;40;7208;-62
2021/06/13 07:09:35;;;;;;;;;;;;;;;;;;1482673;40;7003;-64
2021/06/13 07:10:37;;;;;;;;;;;;;;;;;;1486411;40;7034;-63
2021/06/13 07:11:41;;;;;;;;;;;;;;;;;;1487138;40;7203;-65
2021/06/13 07:12:44;;;;;;;;;;;;;;;;;;1484475;40;7035;-64
2021/06/13 07:13:47;;;;;;;;;;;;;;;;;;1482562;40;7047;-61
2021/06/13 07:14:49;;;;;;;;;;;;;;;;;;1484115;40;7098;-61
2021/06/13 07:15:51;;;;;;;;;;;;;;;;;;1486765;40;7027;-62
2021/06/13 07:16:54;;;;;;;;;;;;;;;;;;1490604;39;7039;-61
2021/06/13 07:17:56;;;;;;;;;;;;;;;;;;1490174;39;7851;-62
2021/06/13 07:18:59;;;;;;;;;;;;;;;;;;1484956;40;7100;-63
2021/06/13 07:20:02;;;;;;;;;;;;;;;;;;1485817;40;7000;-62
2021/06/13 07:21:05;;;;;;;;;;;;;;;;;;1486333;40;7268;-61
2021/06/13 07:22:08;;;;;;;;;;;;;;;;;;1483472;40;7043;-64
2021/06/13 07:23:10;;;;;;;;;;;;;;;;;;1484058;39;7917;-61
2021/06/13 07:24:13;;;;;;;;;;;;;;;;;;1482519;40;7063;-61
2021/06/13 07:25:15;;;;;;;;;;;;;;;;;;1482857;40;7000;-64
2021/06/13 07:26:17;;;;;;;;;;;;;;;;;;1483166;40;7206;-62
2021/06/13 07:27:20;;;;;;;;;;;;;;;;;;1486061;40;7003;-59
2021/06/13 07:28:23;;;;;;;;;;;;;;;;;;1490138;39;6991;-61
2021/06/13 07:29:25;;;;;;;;;;;;;;;;;;1486038;39;7040;-65
2021/06/13 07:30:28;;;;;;;;;;;;;;;;;;1484175;40;7035;-61
2021/06/13 07:31:30;;;;;;;;;;;;;;;;;;1483848;40;7007;-61
2021/06/13 07:32:33;;;;;;;;;;;;;;;;;;1485399;39;7035;-62
2021/06/13 07:33:35;;;;;;;;;;;;;;;;;;1485356;40;7007;-61